createdAt,value
2022-08-18T00:00:23.923Z,99476.59
2022-08-18T00:03:27.234Z,99480.75
2022-08-18T00:06:21.112Z,99454.31
2022-08-18T00:09:10.769Z,99485.88
2022-08-18T00:12:01.673Z,99484.81
2022-08-18T00:14:49.796Z,99468.66
2022-08-18T00:17:38.713Z,99466.47
2022-08-18T00:20:26.831Z,99485.44
2022-08-18T00:23:14.884Z,99479.84
2022-08-18T00:26:04.490Z,99484.50
2022-08-18T00:28:53.840Z,99475.31
2022-08-18T00:31:41.844Z,99475.47
2022-08-18T00:34:29.845Z,99479.06
2022-08-18T00:37:22.113Z,99475.47
2022-08-18T00:40:13.333Z,99484.84
2022-08-18T00:43:02.930Z,99478.28
2022-08-18T00:45:52.296Z,99468.50
2022-08-18T00:48:40.310Z,99460.25
2022-08-18T00:51:48.027Z,99456.97
2022-08-18T00:54:40.181Z,99464.28
2022-08-18T00:57:29.779Z,99470.66
2022-08-18T01:00:17.838Z,99461.50
2022-08-18T01:03:13.646Z,99458.88
2022-08-18T01:06:07.950Z,99468.34
2022-08-18T01:08:56.910Z,99471.94
2022-08-18T01:11:45.219Z,99476.59
2022-08-18T01:14:33.292Z,99482.03
2022-08-18T01:17:39.071Z,99472.88
2022-08-18T01:20:52.478Z,99475.34
2022-08-18T01:26:31.146Z,99478.47
2022-08-18T01:29:20.445Z,99474.09
2022-08-18T01:32:08.445Z,99483.38
2022-08-18T01:34:56.419Z,99480.72
2022-08-18T01:37:44.609Z,99483.53
2022-08-18T01:41:24.378Z,99470.47
2022-08-18T01:43:41.997Z,99470.44
2022-08-18T01:46:33.603Z,99476.03
2022-08-18T01:49:22.940Z,99474.78
2022-08-18T01:52:11.186Z,99438.41
2022-08-18T01:54:59.167Z,99461.41
2022-08-18T01:57:48.611Z,99467.19
2022-08-18T02:00:36.823Z,99434.97
2022-08-18T02:03:27.836Z,99463.13
2022-08-18T02:06:18.503Z,99467.78
2022-08-18T02:09:23.657Z,99455.63
2022-08-18T02:12:12.926Z,99461.69
2022-08-18T02:15:02.325Z,99457.34
2022-08-18T02:17:50.613Z,99461.09
2022-08-18T02:20:38.855Z,99462.66
2022-08-18T02:23:27.048Z,99458.44
2022-08-18T02:26:18.593Z,99459.84
2022-08-18T02:29:06.848Z,99456.28
2022-08-18T02:31:56.291Z,99454.69
2022-08-18T02:34:44.306Z,99453.63
2022-08-18T02:37:32.404Z,99459.22
2022-08-18T02:40:20.562Z,99445.84
2022-08-18T02:43:09.657Z,99449.91
2022-08-18T02:45:58.715Z,99448.31
2022-08-18T02:48:48.511Z,99449.53
2022-08-18T02:51:37.244Z,99439.56
2022-08-18T02:54:26.456Z,99448.91
2022-08-18T02:57:14.796Z,99449.38
2022-08-18T03:00:02.992Z,99452.03
2022-08-18T03:02:54.502Z,99448.13
2022-08-18T03:05:43.909Z,99448.75
2022-08-18T03:08:32.348Z,99444.72
2022-08-18T03:11:23.684Z,99445.66
2022-08-18T03:14:12.462Z,99445.13
2022-08-18T03:17:00.788Z,99444.78
2022-08-18T03:19:48.978Z,99444.06
2022-08-18T03:22:42.167Z,99368.06
2022-08-18T03:25:30.189Z,99448.44
2022-08-18T03:28:18.612Z,99445.72
2022-08-18T03:31:06.697Z,99429.69
2022-08-18T03:33:56.038Z,99439.09
2022-08-18T03:36:47.731Z,99443.91
2022-08-18T03:39:37.353Z,99442.44
2022-08-18T03:42:25.374Z,99431.59
2022-08-18T03:45:17.774Z,99428.34
2022-08-18T03:48:06.705Z,99431.78
2022-08-18T03:50:54.752Z,99429.44
2022-08-18T03:53:43.326Z,99432.09
2022-08-18T03:56:35.203Z,99428.50
2022-08-18T03:59:25.145Z,99428.00
2022-08-18T04:02:13.389Z,99427.34
2022-08-18T04:05:01.438Z,99424.13
2022-08-18T04:07:54.320Z,99416.75
2022-08-18T04:10:45.807Z,99419.31
2022-08-18T04:13:37.303Z,99424.72
2022-08-18T04:16:25.515Z,99425.97
2022-08-18T04:19:14.443Z,99430.16
2022-08-18T04:22:17.620Z,99440.22
2022-08-18T04:25:09.280Z,99426.28
2022-08-18T04:28:00.321Z,99430.59
2022-08-18T04:30:49.758Z,99428.53
2022-08-18T04:33:38.637Z,99421.53
2022-08-18T04:36:28.300Z,99429.00
2022-08-18T04:39:16.712Z,99429.44
2022-08-18T04:42:05.767Z,99434.84
2022-08-18T04:44:54.045Z,99446.75
2022-08-18T04:47:43.510Z,99444.50
2022-08-18T04:50:33.011Z,99457.75
2022-08-18T04:53:38.613Z,99471.53
2022-08-18T04:56:29.531Z,99458.03
2022-08-18T04:59:18.374Z,99470.03
2022-08-18T05:02:12.690Z,99472.00
2022-08-18T05:05:04.480Z,99470.47
2022-08-18T05:07:52.909Z,99468.44
2022-08-18T05:10:41.391Z,99475.34
2022-08-18T05:13:29.473Z,99461.84
2022-08-18T05:16:27.286Z,99471.97
2022-08-18T05:19:19.318Z,99475.88
2022-08-18T05:22:09.016Z,99470.63
2022-08-18T05:24:58.165Z,99472.41
2022-08-18T05:27:46.310Z,99488.56
2022-08-18T05:30:34.429Z,99488.66
2022-08-18T05:33:22.520Z,99486.00
2022-08-18T05:36:18.658Z,99497.84
2022-08-18T05:39:17.003Z,99494.59
2022-08-18T05:42:07.885Z,99500.06
2022-08-18T05:44:57.062Z,99480.84
2022-08-18T05:47:45.822Z,99423.06
2022-08-18T05:50:36.362Z,99484.50
2022-08-18T05:53:45.010Z,99483.75
2022-08-18T05:56:47.122Z,99467.00
2022-08-18T05:59:38.519Z,99467.88
2022-08-18T06:02:33.474Z,99472.56
2022-08-18T06:05:26.746Z,99464.81
2022-08-18T06:08:17.832Z,99464.06
2022-08-18T06:11:06.101Z,99461.16
2022-08-18T06:14:06.906Z,99466.59
2022-08-18T06:17:03.434Z,99464.19
2022-08-18T06:20:03.078Z,99461.13
2022-08-18T06:22:59.484Z,99461.53
2022-08-18T06:25:57.741Z,99458.50
2022-08-18T06:28:57.709Z,99460.25
2022-08-18T06:31:58.647Z,99471.38
2022-08-18T06:35:03.003Z,99470.19
2022-08-18T06:38:16.976Z,99475.31
2022-08-18T06:41:40.625Z,99472.69
2022-08-18T06:44:24.918Z,99476.53
2022-08-18T06:47:19.473Z,99482.44
2022-08-18T06:50:12.375Z,99484.47
2022-08-18T06:53:03.840Z,99486.13
2022-08-18T06:55:52.372Z,99489.56
2022-08-18T06:58:40.519Z,99495.03
2022-08-18T07:01:29.393Z,99495.84
2022-08-18T07:04:39.923Z,99492.41
2022-08-18T07:07:39.892Z,99499.69
2022-08-18T07:10:42.247Z,99506.81
2022-08-18T07:13:31.812Z,99512.66
2022-08-18T07:16:47.086Z,99520.56
2022-08-18T07:19:33.475Z,99518.97
2022-08-18T07:22:22.995Z,99510.84
2022-08-18T07:25:30.260Z,99506.25
2022-08-18T07:28:29.869Z,99509.06
2022-08-18T07:31:37.285Z,99507.19
2022-08-18T07:34:29.688Z,99514.06
2022-08-18T07:37:26.489Z,99504.72
2022-08-18T07:40:26.687Z,99517.16
2022-08-18T07:43:20.838Z,99523.53
2022-08-18T07:46:19.188Z,99526.50
2022-08-18T07:49:07.765Z,99537.78
2022-08-18T07:52:03.975Z,99527.06
2022-08-18T07:55:04.295Z,99522.66
2022-08-18T07:58:01.255Z,99536.38
2022-08-18T08:00:59.129Z,99528.75
2022-08-18T08:03:55.434Z,99522.28
2022-08-18T08:07:06.463Z,99520.59
2022-08-18T08:10:18.904Z,99515.78
2022-08-18T08:13:37.025Z,99517.81
2022-08-18T08:16:37.250Z,99513.91
2022-08-18T08:20:00.591Z,99525.56
2022-08-18T08:23:03.353Z,99516.72
2022-08-18T08:26:01.983Z,99522.94
2022-08-18T08:29:02.939Z,99518.25
2022-08-18T08:31:58.769Z,99505.38
2022-08-18T08:34:52.876Z,99510.03
2022-08-18T08:37:45.830Z,99516.13
2022-08-18T08:40:42.923Z,99511.28
2022-08-18T08:43:35.503Z,99507.69
2022-08-18T08:46:31.190Z,99511.44
2022-08-18T08:49:33.610Z,99507.53
2022-08-18T08:52:27.618Z,99528.06
2022-08-18T08:55:21.343Z,99526.03
2022-08-18T08:58:20.366Z,99541.97
2022-08-18T09:01:21.252Z,99529.94
2022-08-18T09:04:27.610Z,99559.97
2022-08-18T09:07:38.239Z,99491.06
2022-08-18T09:11:05.442Z,99578.91
2022-08-18T09:14:16.053Z,99571.59
2022-08-18T09:17:24.963Z,99573.28
2022-08-18T09:20:48.924Z,99570.03
2022-08-18T09:23:43.366Z,99577.03
2022-08-18T09:26:42.242Z,99573.69
2022-08-18T09:29:55.231Z,99498.03
2022-08-18T09:32:56.768Z,99609.66
2022-08-18T09:35:59.387Z,99609.53
2022-08-18T09:39:13.158Z,99600.41
2022-08-18T09:42:11.379Z,99605.53
2022-08-18T09:45:08.071Z,99577.13
2022-08-18T09:48:01.619Z,99569.19
2022-08-18T09:51:18.742Z,99570.56
2022-08-18T09:54:21.296Z,99544.66
2022-08-18T09:57:24.300Z,99578.47
2022-08-18T10:00:30.456Z,99569.16
2022-08-18T10:03:31.139Z,99565.13
2022-08-18T10:06:23.831Z,99571.03
2022-08-18T10:09:36.744Z,99567.16
2022-08-18T10:12:39.028Z,99565.59
2022-08-18T10:15:37.880Z,99570.44
2022-08-18T10:18:49.361Z,99569.97
2022-08-18T10:22:06.345Z,99556.06
2022-08-18T10:25:09.267Z,99547.41
2022-08-18T10:28:10.045Z,99563.78
2022-08-18T10:31:09.905Z,99565.75
2022-08-18T10:34:16.074Z,99558.31
2022-08-18T10:37:16.957Z,99560.66
2022-08-18T10:40:18.526Z,99556.41
2022-08-18T10:46:25.298Z,99516.16
2022-08-18T10:49:25.697Z,99543.84
2022-08-18T10:52:45.325Z,99556.47
2022-08-18T10:55:50.044Z,99546.47
2022-08-18T10:58:52.021Z,99530.97
2022-08-18T11:02:02.822Z,99521.91
2022-08-18T11:04:58.865Z,99505.47
2022-08-18T11:07:52.169Z,99484.84
2022-08-18T11:11:24.562Z,99480.78
2022-08-18T11:14:17.049Z,99481.16
2022-08-18T11:17:14.436Z,99475.91
2022-08-18T11:20:09.321Z,99478.53
2022-08-18T11:23:01.055Z,99483.41
2022-08-18T11:25:51.012Z,99449.28
2022-08-18T11:28:44.926Z,99447.81
2022-08-18T11:31:34.687Z,99451.06
2022-08-18T11:34:32.049Z,99457.03
2022-08-18T11:37:28.370Z,99453.59
2022-08-18T11:43:56.358Z,99464.16
2022-08-18T11:46:51.792Z,99459.66
2022-08-18T11:49:50.500Z,99475.78
2022-08-18T11:52:50.724Z,99467.91
2022-08-18T11:55:48.273Z,99471.81
2022-08-18T11:58:43.538Z,99458.56
2022-08-18T12:01:42.270Z,99454.47
2022-08-18T12:04:39.691Z,99447.50
2022-08-18T12:07:30.686Z,99453.44
2022-08-18T12:10:26.455Z,99449.31
2022-08-18T12:13:25.497Z,99447.66
2022-08-18T12:16:19.219Z,99454.16
2022-08-18T12:22:19.945Z,99431.22
2022-08-18T12:25:12.072Z,99439.69
2022-08-18T12:28:00.423Z,99442.03
2022-08-18T12:30:56.799Z,99454.88
2022-08-18T12:33:47.801Z,99437.53
2022-08-18T12:36:47.906Z,99436.72
2022-08-18T12:39:37.823Z,99436.31
2022-08-18T12:42:26.536Z,99436.50
2022-08-18T12:45:15.864Z,99438.53
2022-08-18T12:48:06.670Z,99430.41
2022-08-18T12:50:58.588Z,99427.09
2022-08-18T12:56:57.590Z,99419.75
2022-08-18T12:59:46.476Z,99416.50
2022-08-18T13:02:34.886Z,99424.69
2022-08-18T13:05:27.761Z,99414.03
2022-08-18T13:08:30.076Z,99405.75
2022-08-18T13:11:25.003Z,99408.50
2022-08-18T13:14:15.701Z,99395.72
2022-08-18T13:17:04.254Z,99397.69
2022-08-18T13:19:57.253Z,99397.91
2022-08-18T13:22:47.997Z,99393.97
2022-08-18T13:25:39.701Z,99402.50
2022-08-18T13:28:30.438Z,99395.72
2022-08-18T13:31:18.782Z,99396.34
2022-08-18T13:34:19.211Z,99369.94
2022-08-18T13:37:08.690Z,99311.81
2022-08-18T13:39:58.231Z,99372.97
2022-08-18T13:42:50.784Z,99383.16
2022-08-18T13:45:53.051Z,99378.31
2022-08-18T13:48:44.410Z,99364.72
2022-08-18T13:51:32.578Z,99281.81
2022-08-18T13:54:31.594Z,99356.53
2022-08-18T13:57:23.531Z,99347.81
2022-08-18T14:00:18.331Z,99336.72
2022-08-18T14:03:09.448Z,99331.00
2022-08-18T14:06:01.590Z,99340.03
2022-08-18T14:08:49.969Z,99339.72
2022-08-18T14:11:39.102Z,99334.88
2022-08-18T14:14:31.385Z,99338.00
2022-08-18T14:17:20.303Z,99332.38
2022-08-18T14:20:48.383Z,99324.91
2022-08-18T14:23:53.961Z,99331.84
2022-08-18T14:26:50.036Z,99317.19
2022-08-18T14:29:46.412Z,99324.69
2022-08-18T14:32:36.579Z,99336.78
2022-08-18T14:36:06.399Z,99326.69
2022-08-18T14:38:46.407Z,99322.84
2022-08-18T14:41:54.632Z,99316.38
2022-08-18T14:44:45.948Z,99310.59
2022-08-18T14:47:34.434Z,99318.75
2022-08-18T14:50:26.714Z,99321.59
2022-08-18T14:53:15.070Z,99334.69
2022-08-18T14:56:05.437Z,99334.44
2022-08-18T14:58:53.606Z,99318.97
2022-08-18T15:01:45.298Z,99322.75
2022-08-18T15:04:38.522Z,99327.94
2022-08-18T15:07:43.186Z,99332.72
2022-08-18T15:10:33.957Z,99336.28
2022-08-18T15:13:24.977Z,99334.47
2022-08-18T15:16:15.335Z,99336.81
2022-08-18T15:19:59.608Z,99342.72
2022-08-18T15:22:30.998Z,99338.25
2022-08-18T15:25:44.392Z,99337.78
2022-08-18T15:28:32.674Z,99337.78
2022-08-18T15:34:31.511Z,99332.16
2022-08-18T15:37:24.232Z,99338.81
2022-08-18T15:40:30.626Z,99324.63
2022-08-18T15:43:28.996Z,99335.69
2022-08-18T15:46:19.396Z,99336.19
2022-08-18T15:49:11.349Z,99331.84
2022-08-18T15:52:05.094Z,99336.00
2022-08-18T15:54:54.751Z,99336.25
2022-08-18T15:57:47.084Z,99334.97
2022-08-18T16:00:43.838Z,99340.63
2022-08-18T16:03:33.637Z,99336.50
2022-08-18T16:06:27.644Z,99332.91
2022-08-18T16:09:17.673Z,99325.72
2022-08-18T16:12:08.930Z,99328.31
2022-08-18T16:14:56.924Z,99339.09
2022-08-18T16:17:45.470Z,99339.31
2022-08-18T16:20:36.746Z,99347.81
2022-08-18T16:23:25.139Z,99350.81
2022-08-18T16:29:09.974Z,99348.50
2022-08-18T16:31:58.080Z,99346.97
2022-08-18T16:34:46.408Z,99351.31
2022-08-18T16:37:34.678Z,99347.38
2022-08-18T16:40:23.445Z,99334.03
2022-08-18T16:43:17.504Z,99342.22
2022-08-18T16:46:10.493Z,99318.31
2022-08-18T16:48:59.546Z,99335.50
2022-08-18T16:51:47.732Z,99326.94
2022-08-18T16:54:35.702Z,99340.28
2022-08-18T16:57:53.678Z,99333.31
2022-08-18T17:01:03.266Z,99331.47
2022-08-18T17:04:13.644Z,99328.50
2022-08-18T17:07:08.855Z,99320.22
2022-08-18T17:09:57.062Z,99316.94
2022-08-18T17:12:45.332Z,99316.34
2022-08-18T17:15:33.688Z,99309.03
2022-08-18T17:18:24.381Z,99308.28
2022-08-18T17:21:15.005Z,99308.75
2022-08-18T17:24:07.492Z,99314.09
2022-08-18T17:27:21.156Z,99309.44
2022-08-18T17:30:16.988Z,99304.28
2022-08-18T17:33:11.395Z,99308.53
2022-08-18T17:36:05.487Z,99304.31
2022-08-18T17:38:58.882Z,99307.50
2022-08-18T17:42:04.271Z,99310.88
2022-08-18T17:44:56.075Z,99315.75
2022-08-18T17:47:55.486Z,99321.25
2022-08-18T17:51:05.695Z,99311.94
2022-08-18T17:54:01.239Z,99317.91
2022-08-18T17:56:53.822Z,99321.91
2022-08-18T17:59:51.789Z,99321.56
2022-08-18T18:02:41.424Z,99325.47
2022-08-18T18:05:36.519Z,99321.59
2022-08-18T18:08:48.510Z,99320.44
2022-08-18T18:11:41.206Z,99323.19
2022-08-18T18:14:31.295Z,99313.88
2022-08-18T18:17:24.951Z,99313.63
2022-08-18T18:20:17.485Z,99327.03
2022-08-18T18:23:17.997Z,99320.34
2022-08-18T18:26:23.264Z,99321.00
2022-08-18T18:29:16.313Z,99319.78
2022-08-18T18:32:23.452Z,99339.75
2022-08-18T18:35:17.258Z,99337.88
2022-08-18T18:38:07.586Z,99335.47
2022-08-18T18:40:58.861Z,99341.09
2022-08-18T18:43:50.148Z,99335.66
2022-08-18T18:46:47.869Z,99336.66
2022-08-18T18:49:44.883Z,99342.31
2022-08-18T18:52:42.119Z,99330.13
2022-08-18T18:55:36.307Z,99342.50
2022-08-18T18:58:33.174Z,99356.06
2022-08-18T19:01:39.848Z,99345.13
2022-08-18T19:04:38.506Z,99357.91
2022-08-18T19:07:30.820Z,99358.84
2022-08-18T19:10:26.827Z,99327.94
2022-08-18T19:13:29.934Z,99363.00
2022-08-18T19:16:25.626Z,99365.72
2022-08-18T19:19:37.050Z,99360.47
2022-08-18T19:22:35.212Z,99363.44
2022-08-18T19:25:27.483Z,99372.25
2022-08-18T19:28:19.990Z,99369.53
2022-08-18T19:31:14.116Z,99370.50
2022-08-18T19:34:08.395Z,99370.38
2022-08-18T19:37:01.831Z,99375.59
2022-08-18T19:39:57.152Z,99366.75
2022-08-18T19:42:53.999Z,99352.34
2022-08-18T19:45:49.812Z,99366.97
2022-08-18T19:48:41.895Z,99368.28
2022-08-18T19:51:34.354Z,99370.78
2022-08-18T19:54:40.193Z,99359.13
2022-08-18T19:57:44.745Z,99371.72
2022-08-18T20:00:42.635Z,99364.25
2022-08-18T20:03:48.351Z,99362.88
2022-08-18T20:06:52.580Z,99358.41
2022-08-18T20:09:56.541Z,99355.47
2022-08-18T20:12:59.254Z,99354.25
2022-08-18T20:16:12.850Z,99352.91
2022-08-18T20:19:02.416Z,99350.59
2022-08-18T20:22:06.820Z,99347.38
2022-08-18T20:25:05.775Z,99360.28
2022-08-18T20:28:32.992Z,99371.63
2022-08-18T20:31:23.782Z,99370.09
2022-08-18T20:34:14.682Z,99385.44
2022-08-18T20:37:08.880Z,99380.34
2022-08-18T20:39:58.082Z,99382.50
2022-08-18T20:42:57.526Z,99382.81
2022-08-18T20:46:10.554Z,99394.19
2022-08-18T20:49:12.668Z,99388.44
2022-08-18T20:52:07.148Z,99381.91
2022-08-18T20:55:11.339Z,99387.34
2022-08-18T20:58:08.278Z,99392.28
2022-08-18T21:01:01.579Z,99388.25
2022-08-18T21:03:49.738Z,99388.72
2022-08-18T21:06:44.395Z,99399.13
2022-08-18T21:09:32.741Z,99389.03
2022-08-18T21:12:26.651Z,99385.28
2022-08-18T21:15:14.791Z,99378.44
2022-08-18T21:18:07.188Z,99382.34
2022-08-18T21:20:57.898Z,99380.47
2022-08-18T21:23:53.424Z,99380.59
2022-08-18T21:26:41.540Z,99380.28
2022-08-18T21:29:44.310Z,99378.59
2022-08-18T21:32:37.850Z,99374.41
2022-08-18T21:35:31.570Z,99374.88
2022-08-18T21:38:27.843Z,99386.06
2022-08-18T21:41:22.067Z,99382.81
2022-08-18T21:44:16.738Z,99389.13
2022-08-18T21:47:06.762Z,99395.97
2022-08-18T21:50:01.097Z,99391.59
2022-08-18T21:52:53.946Z,99389.44
2022-08-18T21:55:45.835Z,99398.91
2022-08-18T21:58:40.466Z,99403.66
2022-08-18T22:01:29.509Z,99410.31
2022-08-18T22:04:26.951Z,99418.03
2022-08-18T22:07:22.220Z,99409.91
2022-08-18T22:10:45.442Z,99423.88
2022-08-18T22:13:59.557Z,99432.22
2022-08-18T22:16:50.091Z,99436.84
2022-08-18T22:19:38.279Z,99436.50
2022-08-18T22:22:48.608Z,99420.81
2022-08-18T22:25:39.588Z,99433.72
2022-08-18T22:28:27.725Z,99441.78
2022-08-18T22:31:20.900Z,99437.13
2022-08-18T22:34:12.385Z,99438.34
2022-08-18T22:37:03.331Z,99442.69
2022-08-18T22:39:53.774Z,99404.38
2022-08-18T22:42:43.291Z,99427.63
2022-08-18T22:45:31.445Z,99436.97
2022-08-18T22:48:19.666Z,99441.44
2022-08-18T22:51:08.940Z,99438.34
2022-08-18T22:53:57.571Z,99430.09
2022-08-18T22:56:56.408Z,99431.00
2022-08-18T22:59:48.304Z,99433.47
2022-08-18T23:02:38.124Z,99429.13
2022-08-18T23:05:26.265Z,99421.78
2022-08-18T23:08:14.325Z,99435.28
2022-08-18T23:11:03.567Z,99431.41
2022-08-18T23:13:52.090Z,99431.09
2022-08-18T23:16:45.149Z,99430.75
2022-08-18T23:19:34.021Z,99427.97
2022-08-18T23:22:22.234Z,99425.63
2022-08-18T23:25:10.875Z,99438.59
2022-08-18T23:27:59.973Z,99441.22
2022-08-18T23:30:50.057Z,99440.56
2022-08-18T23:33:39.657Z,99455.31
2022-08-18T23:36:28.422Z,99452.38
2022-08-18T23:39:16.511Z,99465.75
2022-08-18T23:42:06.940Z,99454.91
2022-08-18T23:45:03.797Z,99469.53
2022-08-18T23:47:52.850Z,99465.81
2022-08-18T23:50:47.552Z,99459.00
2022-08-18T23:53:35.598Z,99469.13
2022-08-18T23:56:23.990Z,99474.25
2022-08-18T23:59:13.054Z,99472.44
